首页
METAR-TAF:

METAR-TAF

机场 :

布里斯班機場

布里斯班, 澳大利亚

纬度: 27-23S, 经度: 153-06E, 海拔: 4米

当前天气观测

该预报发布于28分钟前的15:30 UTC
静风
温度 20°C
湿度 94%
气压 1010 hPa
能见度10公里或以上
1500米以下无云,无积雨云

METAR: YBBN 131530Z 00000KT CAVOK 20/19 Q1010 TEMPO 1630/1830 9999 BKN010

时间: 01:58 (15:58 UTC)

预报

该预报发布于52分钟前的15:06 UTC
预报有效从13日的 15点(UTC)到 14日的 18点(UTC)
风速5节,风向南转西南
能见度10公里或以上
散云层高于1200英尺
多云层高于2000英尺
从 13日的 2100点(UTC)
风速8节,风向东北
能见度10公里或以上
散云层高于2500英尺
从 14日的 0200点(UTC)
风速17节,风向东北
能见度10公里或以上
少量云层高于3500英尺
从 14日的 1000点(UTC)
风速8节,风向北转东北
能见度10公里或以上
散云层高于1000英尺
散云层高于2000英尺
短暂存在
从 13日的 16点(UTC)到 13日的 21点(UTC)
能见度10公里或以上
多云层高于1000英尺
短暂存在
从 14日的 09点(UTC)到 14日的 18点(UTC)
能见度10公里或以上
多云层高于1000英尺
几率 30% :
短暂存在
从 14日的 03点(UTC)到 14日的 08点(UTC)
风速25节,风向多变,有时为40节阵风
能見度: 2000
多云层高于1000英尺
散云层高于5000英尺, 积雨云.
雷暴, 雨

TAF: YBBN 131506Z 1315/1418 20005KT 9999 SCT012 BKN020 FM132100 04008KT 9999 SCT025 FM140200 04017KT 9999 FEW035 FM141000 03008KT 9999 SCT010 SCT020 TEMPO 1316/1321 9999 BKN010 TEMPO 1409/1418 9999 BKN010 PROB30 TEMPO 1403/1408 VRB25G40KT 2000 TSRA BKN010 SCT050CB

超过4000个机场的气象观测和天气预报(METAR&TAF报告)。

可查询的气象台以黄色和红色小点在地图上表示。

将鼠标移到小点上方,可查看气象台名称。

然后点击查看天气观测和预报。

如需切换地图:点击带黑十字的绿色按钮放大地图;点击带横线的绿色按钮缩小地图;或者点击绿色箭头查看邻近地区的地图。


METAR-TAF: